Time;durP1;ratioP1;P1;durP2;ratioP2;P2;SDS_P1;SDS_P2;PMS_P1;PMS_P2;Temp;Humidity;BMP_temperature;BMP_pressure;BME280_temperature;BME280_humidity;BME280_pressure;Samples;Min_cycle;Max_cycle;Signal;HPM_P1;HPM_P2
2022/09/27 00:01:59;;;;;;;4.43;1.50;;;10.10;99.90;;;;;;5096707;28;20201;-59
2022/09/27 00:04:28;;;;;;;1.90;1.30;;;10.10;99.90;;;;;;5095501;28;20195;-59
2022/09/27 00:06:56;;;;;;;5.40;1.70;;;10.10;99.90;;;;;;5086361;28;20639;-59
2022/09/27 00:09:25;;;;;;;5.87;1.70;;;10.10;99.90;;;;;;5101154;28;20205;-59
2022/09/27 00:11:53;;;;;;;5.30;1.77;;;10.10;99.90;;;;;;5087727;28;20561;-58
2022/09/27 00:14:21;;;;;;;6.03;1.67;;;10.10;99.90;;;;;;5093345;28;20194;-60
2022/09/27 00:16:51;;;;;;;5.37;1.90;;;10.10;99.90;;;;;;5097812;28;20638;-59
2022/09/27 00:19:22;;;;;;;3.20;1.60;;;10.10;99.90;;;;;;5074096;28;20196;-59
2022/09/27 00:21:53;;;;;;;4.80;1.70;;;10.20;99.90;;;;;;5081784;28;20191;-59
2022/09/27 00:24:23;;;;;;;2.93;1.70;;;10.20;99.90;;;;;;5072217;28;20223;-58
2022/09/27 00:26:51;;;;;;;5.17;1.70;;;10.20;99.90;;;;;;5073509;28;20611;-58
2022/09/27 00:29:20;;;;;;;4.87;2.03;;;10.20;99.90;;;;;;5063784;28;20197;-58
2022/09/27 00:31:48;;;;;;;3.43;1.77;;;10.10;99.90;;;;;;5071719;28;20196;-58
2022/09/27 00:34:20;;;;;;;6.17;1.70;;;10.10;99.90;;;;;;5067936;28;20518;-58
2022/09/27 00:36:55;;;;;;;4.80;1.93;;;10.00;99.90;;;;;;5064952;28;20219;-59
2022/09/27 00:39:24;;;;;;;3.50;1.90;;;10.00;99.90;;;;;;5065984;28;20207;-59
2022/09/27 00:41:52;;;;;;;5.23;1.70;;;9.90;99.90;;;;;;5067827;28;20199;-59
2022/09/27 00:45:09;;;;;;;1.30;1.30;;;9.90;99.90;;;;;;5066215;28;20212;-59
2022/09/27 00:47:44;;;;;;;4.27;1.53;;;9.90;99.90;;;;;;5037729;28;20213;-59
2022/09/27 00:50:23;;;;;;;2.50;1.27;;;9.80;99.90;;;;;;5053483;28;20772;-59
2022/09/27 00:52:59;;;;;;;5.37;1.40;;;9.80;99.90;;;;;;5064894;28;20196;-59
2022/09/27 00:55:32;;;;;;;3.40;1.47;;;9.80;99.90;;;;;;5078944;28;20197;-59
2022/09/27 00:58:03;;;;;;;3.23;1.20;;;9.80;99.90;;;;;;5062027;28;20195;-59
2022/09/27 01:00:32;;;;;;;3.80;1.50;;;9.70;99.90;;;;;;5058454;28;20203;-59
2022/09/27 01:03:04;;;;;;;2.67;1.30;;;9.80;99.90;;;;;;5065361;28;20574;-58
2022/09/27 01:05:34;;;;;;;4.60;1.77;;;9.80;99.90;;;;;;5059367;28;20600;-59
2022/09/27 01:08:02;;;;;;;1.70;1.33;;;9.70;99.90;;;;;;5061574;28;20727;-58
2022/09/27 01:10:37;;;;;;;3.70;1.50;;;9.70;99.90;;;;;;5071778;28;20201;-59
2022/09/27 01:13:12;;;;;;;4.50;1.60;;;9.70;99.90;;;;;;5062549;28;20647;-59
2022/09/27 01:15:50;;;;;;;2.87;1.83;;;9.70;99.90;;;;;;5061430;28;20189;-59
2022/09/27 01:18:30;;;;;;;1.70;1.60;;;9.70;99.90;;;;;;5066114;28;20195;-59
2022/09/27 01:21:43;;;;;;;5.50;1.73;;;9.70;99.90;;;;;;5064763;28;20741;-58
2022/09/27 01:24:53;;;;;;;1.80;1.47;;;9.70;99.90;;;;;;5065440;28;20202;-59
2022/09/27 01:28:08;;;;;;;4.37;1.70;;;9.70;99.90;;;;;;5072821;28;20268;-59
2022/09/27 01:30:45;;;;;;;1.60;1.50;;;9.70;99.90;;;;;;5068730;28;20881;-58
2022/09/27 01:33:41;;;;;;;3.50;1.73;;;9.70;99.90;;;;;;5069565;28;20198;-59
2022/09/27 01:36:25;;;;;;;3.30;1.50;;;9.70;99.90;;;;;;5069770;28;20196;-59
2022/09/27 01:39:08;;;;;;;6.33;1.83;;;9.80;99.90;;;;;;5074677;28;20194;-59
2022/09/27 01:41:42;;;;;;;2.73;1.60;;;9.70;99.90;;;;;;5070768;28;20210;-59
2022/09/27 01:44:17;;;;;;;3.67;2.03;;;9.70;99.90;;;;;;5085066;28;20203;-59
2022/09/27 01:46:52;;;;;;;2.77;1.63;;;9.70;99.90;;;;;;5082850;28;20207;-59
2022/09/27 01:49:30;;;;;;;5.40;1.80;;;9.70;99.90;;;;;;5051962;28;20200;-58
2022/09/27 01:52:01;;;;;;;5.07;1.90;;;9.70;99.90;;;;;;5074832;28;20710;-59
2022/09/27 01:54:37;;;;;;;3.23;2.07;;;9.70;99.90;;;;;;5080813;28;20200;-59
2022/09/27 01:57:09;;;;;;;3.43;2.00;;;9.70;99.90;;;;;;5070170;28;20184;-59
2022/09/27 01:59:45;;;;;;;3.43;2.60;;;9.70;99.90;;;;;;5076394;28;20584;-59
2022/09/27 02:02:18;;;;;;;5.27;2.10;;;9.60;99.90;;;;;;5078561;28;20694;-59
2022/09/27 02:04:50;;;;;;;4.57;2.57;;;9.60;99.90;;;;;;5065703;28;20526;-59
2022/09/27 02:07:23;;;;;;;7.70;2.43;;;9.60;99.90;;;;;;5074399;28;20227;-58
2022/09/27 02:09:56;;;;;;;6.50;2.63;;;9.60;99.90;;;;;;5072237;28;20198;-59
2022/09/27 02:12:29;;;;;;;5.00;2.50;;;9.60;99.90;;;;;;5071995;28;20192;-59
2022/09/27 02:15:03;;;;;;;2.63;2.10;;;9.60;99.90;;;;;;5064285;28;20202;-59
2022/09/27 02:17:43;;;;;;;4.30;2.10;;;9.60;99.90;;;;;;5069014;28;20192;-59
2022/09/27 02:20:17;;;;;;;3.20;2.33;;;9.60;99.90;;;;;;5060542;28;20606;-59
2022/09/27 02:22:50;;;;;;;4.37;2.40;;;9.50;99.90;;;;;;5067784;28;20195;-59
2022/09/27 02:25:22;;;;;;;3.00;2.00;;;9.50;99.90;;;;;;5047499;28;20200;-59
2022/09/27 02:27:59;;;;;;;2.30;2.00;;;9.50;99.90;;;;;;5068838;28;20215;-59
2022/09/27 02:30:27;;;;;;;3.17;2.00;;;9.50;99.90;;;;;;5057437;28;20204;-59
2022/09/27 02:32:58;;;;;;;5.60;2.20;;;9.50;99.90;;;;;;5065597;28;20551;-59
2022/09/27 02:35:29;;;;;;;5.63;2.20;;;9.50;99.90;;;;;;5065450;28;20192;-59
2022/09/27 02:37:58;;;;;;;2.60;2.10;;;9.50;99.90;;;;;;5067279;28;20180;-59
2022/09/27 02:40:31;;;;;;;2.30;2.10;;;9.50;99.90;;;;;;5071224;28;20806;-59
2022/09/27 02:43:01;;;;;;;7.00;2.20;;;9.60;99.90;;;;;;5070532;28;20199;-59
2022/09/27 02:45:38;;;;;;;2.30;2.10;;;9.60;99.90;;;;;;5077936;28;20202;-59
2022/09/27 02:48:19;;;;;;;4.40;2.20;;;9.60;99.90;;;;;;5069987;28;20192;-59
2022/09/27 02:51:09;;;;;;;2.43;2.07;;;9.60;99.90;;;;;;5098524;27;20199;-59
2022/09/27 02:53:48;;;;;;;7.03;2.83;;;9.60;99.90;;;;;;5100957;27;20202;-59
2022/09/27 02:56:23;;;;;;;2.27;1.97;;;9.60;99.90;;;;;;5074593;28;20287;-59
2022/09/27 02:59:03;;;;;;;5.13;2.20;;;9.60;99.90;;;;;;5066600;28;20552;-59
2022/09/27 03:01:37;;;;;;;4.73;2.10;;;9.60;99.90;;;;;;5070870;28;20208;-58
2022/09/27 03:04:13;;;;;;;5.33;2.30;;;9.60;99.90;;;;;;5072055;28;20206;-58
2022/09/27 03:06:45;;;;;;;4.77;2.27;;;9.60;99.90;;;;;;5070059;28;20732;-59
2022/09/27 03:09:20;;;;;;;1.80;1.70;;;9.60;99.90;;;;;;5065986;28;20238;-59
2022/09/27 03:11:48;;;;;;;9.30;2.10;;;9.50;99.90;;;;;;5069250;28;20267;-59
2022/09/27 03:14:17;;;;;;;6.07;2.30;;;9.50;99.90;;;;;;5070791;28;20197;-58
2022/09/27 03:16:45;;;;;;;4.97;2.97;;;9.50;99.90;;;;;;5059570;28;20208;-59
2022/09/27 03:19:15;;;;;;;4.90;2.17;;;9.50;99.90;;;;;;5062493;28;20224;-58
2022/09/27 03:21:43;;;;;;;6.57;2.00;;;9.50;99.90;;;;;;5066646;28;20262;-59
2022/09/27 03:24:12;;;;;;;2.77;2.37;;;9.50;99.90;;;;;;5065534;28;20205;-59
2022/09/27 03:26:40;;;;;;;3.17;2.00;;;9.50;99.90;;;;;;5071182;28;20211;-59
2022/09/27 03:29:09;;;;;;;2.80;2.03;;;9.60;99.90;;;;;;5058178;28;20236;-59
2022/09/27 03:31:37;;;;;;;6.23;2.07;;;9.50;99.90;;;;;;5065356;28;20195;-59
2022/09/27 03:34:05;;;;;;;3.20;2.10;;;9.60;99.90;;;;;;5059001;28;20664;-59
2022/09/27 03:36:35;;;;;;;6.03;2.70;;;9.50;99.90;;;;;;5060584;28;20200;-59
2022/09/27 03:39:03;;;;;;;3.37;2.00;;;9.50;99.90;;;;;;5061769;28;20189;-59
2022/09/27 03:41:34;;;;;;;6.50;2.20;;;9.50;99.90;;;;;;5057155;28;20193;-59
2022/09/27 03:44:02;;;;;;;6.13;1.90;;;9.50;99.90;;;;;;5065832;28;20204;-59
2022/09/27 03:46:31;;;;;;;4.97;2.20;;;9.50;99.90;;;;;;5067787;28;20651;-58
2022/09/27 03:48:59;;;;;;;7.43;2.13;;;9.50;99.90;;;;;;5064616;28;20571;-59
2022/09/27 03:51:28;;;;;;;2.97;2.40;;;9.50;99.90;;;;;;5067611;28;20234;-59
2022/09/27 03:53:58;;;;;;;3.90;2.67;;;9.50;99.90;;;;;;5057123;28;20188;-59
2022/09/27 03:56:27;;;;;;;4.47;3.50;;;9.60;99.90;;;;;;5076168;28;20572;-58
2022/09/27 03:58:56;;;;;;;8.17;4.57;;;9.60;99.90;;;;;;5077799;28;20194;-59
2022/09/27 04:01:24;;;;;;;6.03;5.10;;;9.60;99.90;;;;;;5073350;28;20200;-59
2022/09/27 04:03:53;;;;;;;8.73;5.53;;;9.60;99.90;;;;;;5075312;28;20658;-59
2022/09/27 04:06:22;;;;;;;12.47;5.10;;;9.50;99.90;;;;;;5087688;28;20732;-59
2022/09/27 04:08:51;;;;;;;8.73;5.77;;;9.50;99.90;;;;;;5073537;28;20665;-59
2022/09/27 04:11:22;;;;;;;7.87;5.90;;;9.50;99.90;;;;;;5077565;28;20684;-59
2022/09/27 04:13:50;;;;;;;9.43;6.97;;;9.50;99.90;;;;;;5062791;28;20189;-59
2022/09/27 04:16:24;;;;;;;8.33;6.10;;;9.40;99.90;;;;;;5073608;28;20198;-59
2022/09/27 04:18:52;;;;;;;10.90;6.20;;;9.30;99.90;;;;;;5095915;27;20185;-59
2022/09/27 04:21:21;;;;;;;12.97;6.37;;;9.30;99.90;;;;;;5075941;28;20192;-59
2022/09/27 04:23:50;;;;;;;7.90;5.43;;;9.30;99.90;;;;;;5056731;28;20204;-59
2022/09/27 04:26:21;;;;;;;7.33;5.03;;;9.20;99.90;;;;;;5091596;28;20199;-59
2022/09/27 04:28:50;;;;;;;8.00;4.67;;;9.20;99.90;;;;;;5050415;28;20231;-59
2022/09/27 04:31:21;;;;;;;4.50;4.20;;;9.20;99.90;;;;;;5072647;28;20221;-59
2022/09/27 04:33:50;;;;;;;6.63;4.10;;;9.20;99.90;;;;;;5067506;28;20299;-59
2022/09/27 04:36:25;;;;;;;6.30;4.23;;;9.10;99.90;;;;;;5065263;28;20646;-59
2022/09/27 04:38:54;;;;;;;3.83;3.53;;;9.10;99.90;;;;;;5068745;28;20204;-59
2022/09/27 04:41:25;;;;;;;5.60;4.03;;;9.10;99.90;;;;;;5060102;28;20965;-60
2022/09/27 04:43:54;;;;;;;6.30;4.03;;;9.00;99.90;;;;;;5076307;28;20535;-59
2022/09/27 04:46:30;;;;;;;6.13;3.70;;;9.00;99.90;;;;;;5064067;28;20193;-59
2022/09/27 04:49:01;;;;;;;5.27;3.63;;;9.00;99.90;;;;;;5071989;28;20242;-59
2022/09/27 04:51:29;;;;;;;5.00;3.50;;;8.90;99.90;;;;;;5070732;28;20197;-59
2022/09/27 04:53:58;;;;;;;4.83;3.77;;;8.90;99.90;;;;;;5069775;28;20201;-59
2022/09/27 04:56:27;;;;;;;5.93;3.60;;;8.90;99.90;;;;;;5063434;28;20191;-60
2022/09/27 04:58:56;;;;;;;5.97;3.87;;;8.90;99.90;;;;;;5056915;28;20207;-59
2022/09/27 05:01:24;;;;;;;3.90;3.60;;;8.90;99.90;;;;;;5060325;28;20207;-59
2022/09/27 05:03:53;;;;;;;7.80;3.60;;;8.90;99.90;;;;;;5061215;28;20223;-59
2022/09/27 05:06:21;;;;;;;5.80;3.47;;;8.90;99.90;;;;;;5073056;28;20241;-59
2022/09/27 05:08:49;;;;;;;4.50;3.77;;;8.90;99.90;;;;;;5059558;28;20228;-59
2022/09/27 05:11:17;;;;;;;3.80;3.33;;;8.90;99.90;;;;;;5067173;28;20199;-59
2022/09/27 05:13:47;;;;;;;11.00;3.53;;;8.90;99.90;;;;;;5060190;28;20678;-59
2022/09/27 05:16:16;;;;;;;3.70;3.40;;;8.90;99.90;;;;;;5067999;28;20206;-59
2022/09/27 05:18:44;;;;;;;3.60;3.30;;;8.90;99.90;;;;;;5066122;28;20671;-59
2022/09/27 05:21:13;;;;;;;5.63;2.90;;;8.90;99.90;;;;;;5075000;28;20203;-59
2022/09/27 05:23:41;;;;;;;5.20;3.00;;;8.90;99.90;;;;;;5069177;28;20192;-59
2022/09/27 05:26:15;;;;;;;3.33;3.10;;;8.90;99.90;;;;;;5070821;28;20212;-59
2022/09/27 05:28:44;;;;;;;11.37;3.90;;;8.80;99.90;;;;;;5072244;28;20216;-59
2022/09/27 05:31:17;;;;;;;6.27;2.90;;;8.80;99.90;;;;;;5063171;28;20215;-59
2022/09/27 05:33:45;;;;;;;5.17;3.07;;;8.80;99.90;;;;;;5065366;28;20275;-59
2022/09/27 05:36:14;;;;;;;7.57;3.40;;;8.90;99.90;;;;;;5065485;28;20300;-59
2022/09/27 05:38:42;;;;;;;4.30;2.90;;;8.80;99.90;;;;;;5061604;28;20219;-59
2022/09/27 05:41:10;;;;;;;2.97;2.70;;;8.80;99.90;;;;;;5067591;28;20269;-59
2022/09/27 05:43:39;;;;;;;3.97;3.00;;;8.90;99.90;;;;;;5068192;28;20198;-59
2022/09/27 05:46:07;;;;;;;4.97;2.83;;;8.90;99.90;;;;;;5069839;28;20615;-59
2022/09/27 05:48:37;;;;;;;5.53;3.10;;;8.80;99.90;;;;;;5068239;28;20206;-59
2022/09/27 05:51:05;;;;;;;6.23;3.13;;;8.80;99.90;;;;;;5059482;28;20204;-59
2022/09/27 05:53:34;;;;;;;3.77;3.43;;;8.80;99.90;;;;;;5065227;28;21186;-59
2022/09/27 05:56:03;;;;;;;4.93;3.00;;;8.80;99.90;;;;;;5059942;28;20200;-59
2022/09/27 05:58:31;;;;;;;6.73;3.47;;;8.80;99.90;;;;;;5062085;28;20200;-59
2022/09/27 06:01:00;;;;;;;7.13;3.30;;;8.80;99.90;;;;;;5070973;28;20188;-59
2022/09/27 06:03:28;;;;;;;4.73;3.40;;;8.70;99.90;;;;;;5065402;28;20254;-59
2022/09/27 06:06:02;;;;;;;4.30;3.20;;;8.70;99.90;;;;;;5060793;28;20598;-59
2022/09/27 06:08:34;;;;;;;6.03;3.47;;;8.70;99.90;;;;;;5071379;28;20516;-59
2022/09/27 06:11:04;;;;;;;7.27;3.50;;;8.80;99.90;;;;;;5069972;28;20208;-59
2022/09/27 06:13:33;;;;;;;5.63;3.30;;;8.80;99.90;;;;;;5068448;28;20211;-59
2022/09/27 06:16:02;;;;;;;4.87;3.97;;;8.80;99.90;;;;;;5071585;28;20650;-58
2022/09/27 06:18:32;;;;;;;6.00;3.67;;;8.80;99.90;;;;;;5068073;28;20200;-59
2022/09/27 06:21:05;;;;;;;5.40;3.83;;;8.80;99.90;;;;;;5066206;28;20193;-59
2022/09/27 06:23:33;;;;;;;6.47;4.17;;;8.80;99.90;;;;;;5070458;28;20200;-59
2022/09/27 06:26:03;;;;;;;7.90;3.80;;;8.90;99.90;;;;;;5060034;28;20300;-60
2022/09/27 06:28:34;;;;;;;5.37;3.97;;;8.90;99.90;;;;;;5068446;28;20597;-59
2022/09/27 06:31:05;;;;;;;6.87;3.83;;;9.00;99.90;;;;;;5064356;28;20675;-59
2022/09/27 06:33:33;;;;;;;5.93;4.00;;;9.10;99.90;;;;;;5060384;28;20207;-59
2022/09/27 06:36:04;;;;;;;5.13;4.00;;;9.10;99.90;;;;;;5070112;28;20547;-58
2022/09/27 06:38:33;;;;;;;7.47;4.20;;;9.10;99.90;;;;;;5060148;28;20346;-59
2022/09/27 06:41:02;;;;;;;6.97;4.20;;;9.10;99.90;;;;;;5062392;28;20574;-59
2022/09/27 06:43:31;;;;;;;8.37;4.07;;;9.20;99.90;;;;;;5049939;28;20204;-59
2022/09/27 06:46:03;;;;;;;4.70;4.17;;;9.30;99.90;;;;;;5065648;28;20643;-59
2022/09/27 06:48:32;;;;;;;8.73;4.47;;;9.40;99.90;;;;;;5066179;28;20207;-60
2022/09/27 06:51:01;;;;;;;9.03;4.83;;;9.50;99.90;;;;;;5063403;28;20211;-59
2022/09/27 06:53:30;;;;;;;10.07;4.73;;;9.50;99.90;;;;;;5070163;28;20200;-59
2022/09/27 06:56:01;;;;;;;7.50;4.23;;;9.50;99.90;;;;;;5069557;28;20217;-59
2022/09/27 07:01:16;;;;;;;5.57;4.30;;;9.60;99.90;;;;;;5064529;28;20184;-59
2022/09/27 07:03:50;;;;;;;6.30;4.27;;;9.60;99.90;;;;;;5083041;28;20653;-59
2022/09/27 07:06:21;;;;;;;5.43;4.00;;;9.50;99.90;;;;;;5062598;28;20250;-59
2022/09/27 07:08:52;;;;;;;9.50;5.93;;;9.50;99.90;;;;;;5070398;28;20195;-59
2022/09/27 07:11:22;;;;;;;6.87;4.67;;;9.50;99.90;;;;;;5069615;28;20309;-59
2022/09/27 07:13:50;;;;;;;5.53;3.93;;;9.60;99.90;;;;;;5069822;28;20307;-59
2022/09/27 07:16:19;;;;;;;5.10;4.60;;;9.60;99.90;;;;;;5075397;28;20199;-59
2022/09/27 07:18:49;;;;;;;5.10;4.40;;;9.60;99.90;;;;;;5070464;28;20199;-59
2022/09/27 07:21:18;;;;;;;5.93;4.10;;;9.50;99.90;;;;;;5058373;28;20206;-59
2022/09/27 07:23:46;;;;;;;5.23;3.93;;;9.50;99.90;;;;;;5064874;28;20203;-59
2022/09/27 07:26:19;;;;;;;4.37;3.97;;;9.60;99.90;;;;;;5062093;28;20219;-59
2022/09/27 07:28:47;;;;;;;9.03;4.10;;;9.60;99.90;;;;;;5081032;28;20202;-59
2022/09/27 07:31:15;;;;;;;4.17;3.30;;;9.70;99.90;;;;;;5067892;28;20277;-59
2022/09/27 07:33:44;;;;;;;4.00;3.30;;;9.70;99.90;;;;;;5070339;28;20215;-59
2022/09/27 07:36:14;;;;;;;4.30;3.27;;;9.70;99.90;;;;;;5071236;28;20214;-59
2022/09/27 07:38:42;;;;;;;3.73;3.37;;;9.60;99.90;;;;;;5080029;28;20195;-59
2022/09/27 07:41:13;;;;;;;3.90;2.93;;;9.70;99.90;;;;;;5073738;28;20195;-59
2022/09/27 07:43:44;;;;;;;3.83;3.23;;;9.60;99.90;;;;;;5067428;28;20189;-59
2022/09/27 07:46:13;;;;;;;5.77;3.20;;;9.60;99.90;;;;;;5073303;28;20287;-59
2022/09/27 07:48:41;;;;;;;5.27;3.40;;;9.80;99.90;;;;;;5071061;28;20546;-59
2022/09/27 07:51:10;;;;;;;2.87;2.73;;;9.80;99.90;;;;;;5078617;28;20204;-59
2022/09/27 07:53:39;;;;;;;7.00;4.23;;;9.80;99.90;;;;;;5074827;28;20195;-59
2022/09/27 07:56:08;;;;;;;3.80;3.50;;;9.70;99.90;;;;;;5070741;28;20212;-59
2022/09/27 07:58:36;;;;;;;4.27;3.50;;;9.70;99.90;;;;;;5080497;28;20221;-59
2022/09/27 08:01:06;;;;;;;4.83;3.30;;;9.70;99.90;;;;;;5082865;28;20708;-58
2022/09/27 08:03:35;;;;;;;4.43;2.93;;;9.70;99.90;;;;;;5074155;28;20192;-58
2022/09/27 08:06:04;;;;;;;3.50;3.20;;;9.70;99.90;;;;;;5091888;28;20277;-59
2022/09/27 08:08:32;;;;;;;3.23;2.80;;;9.70;99.90;;;;;;5075408;28;20655;-58
2022/09/27 08:11:01;;;;;;;3.70;3.13;;;9.70;99.90;;;;;;5081688;28;20266;-58
2022/09/27 08:13:29;;;;;;;4.47;2.57;;;9.70;99.90;;;;;;5066085;28;20294;-59
2022/09/27 08:16:02;;;;;;;4.63;2.90;;;9.70;99.90;;;;;;5069930;28;20619;-58
2022/09/27 08:18:31;;;;;;;4.60;3.13;;;9.70;99.90;;;;;;5080308;28;20197;-59
2022/09/27 08:21:00;;;;;;;2.30;2.20;;;9.70;99.90;;;;;;5081104;28;20192;-59
2022/09/27 08:23:29;;;;;;;2.40;2.20;;;9.60;99.90;;;;;;5070932;28;20200;-59
2022/09/27 08:25:58;;;;;;;4.07;2.70;;;9.60;99.90;;;;;;5068877;28;20200;-58
2022/09/27 08:28:27;;;;;;;4.63;2.70;;;9.60;99.90;;;;;;5066466;28;20241;-59
2022/09/27 08:30:58;;;;;;;3.20;2.00;;;9.60;99.90;;;;;;5073636;28;20552;-59
2022/09/27 08:33:26;;;;;;;2.50;2.30;;;9.70;99.90;;;;;;5069659;28;20203;-59
2022/09/27 08:36:02;;;;;;;3.63;2.50;;;9.70;99.90;;;;;;5070556;28;20194;-59
2022/09/27 08:38:30;;;;;;;2.63;1.97;;;9.80;99.90;;;;;;5071625;28;20265;-59
2022/09/27 08:41:07;;;;;;;2.07;2.07;;;9.80;99.90;;;;;;5067166;28;20188;-59
2022/09/27 08:43:42;;;;;;;4.33;2.57;;;9.80;99.90;;;;;;5075922;28;20206;-59
2022/09/27 08:46:27;;;;;;;4.10;2.30;;;9.80;99.90;;;;;;5071479;28;20204;-59
2022/09/27 08:49:04;;;;;;;3.50;2.33;;;9.80;99.90;;;;;;5066246;28;20188;-59
2022/09/27 08:51:36;;;;;;;5.47;2.70;;;9.90;99.90;;;;;;5065641;28;20212;-59
2022/09/27 08:54:08;;;;;;;2.20;2.10;;;9.90;99.90;;;;;;5063609;28;20193;-59
2022/09/27 08:56:37;;;;;;;9.07;2.40;;;10.00;99.90;;;;;;5071722;28;20184;-59
2022/09/27 08:59:12;;;;;;;9.13;2.60;;;10.10;99.90;;;;;;5067586;28;20202;-60
2022/09/27 09:01:41;;;;;;;5.07;2.20;;;10.20;99.90;;;;;;5070914;28;20193;-59
2022/09/27 09:04:11;;;;;;;4.23;3.13;;;10.20;99.90;;;;;;5071532;28;20207;-60
2022/09/27 09:06:49;;;;;;;4.30;2.60;;;10.40;99.90;;;;;;5075937;28;20322;-60
2022/09/27 09:09:28;;;;;;;7.17;4.10;;;10.40;99.90;;;;;;5068921;28;20279;-59
2022/09/27 09:15:06;;;;;;;6.67;2.77;;;10.70;99.90;;;;;;5065396;28;20215;-59
2022/09/27 09:17:55;;;;;;;3.67;2.70;;;10.90;99.90;;;;;;5058073;28;20192;-59
2022/09/27 09:20:35;;;;;;;6.17;2.70;;;11.10;99.90;;;;;;5061472;28;20584;-59
2022/09/27 09:23:25;;;;;;;5.43;2.70;;;11.30;99.90;;;;;;5065781;28;20268;-60
2022/09/27 09:26:00;;;;;;;3.13;2.20;;;11.50;99.90;;;;;;5027700;28;20720;-59
2022/09/27 09:28:41;;;;;;;5.60;2.77;;;11.60;99.90;;;;;;5057231;28;20547;-60
2022/09/27 09:31:14;;;;;;;7.87;4.60;;;11.70;99.90;;;;;;5058474;28;20212;-60
2022/09/27 09:33:49;;;;;;;5.73;2.33;;;11.80;99.90;;;;;;5066001;28;20571;-59
2022/09/27 09:36:26;;;;;;;8.33;2.40;;;11.80;99.90;;;;;;5060742;28;20574;-60
2022/09/27 09:38:59;;;;;;;3.87;2.27;;;11.80;99.90;;;;;;5081807;28;20198;-59
2022/09/27 09:41:31;;;;;;;11.30;2.60;;;11.90;99.90;;;;;;5064931;28;20647;-59
2022/09/27 09:44:05;;;;;;;3.23;2.10;;;11.90;99.90;;;;;;5064043;28;20199;-60
2022/09/27 09:46:38;;;;;;;4.60;2.90;;;11.90;99.90;;;;;;5059038;28;20189;-59
2022/09/27 09:49:19;;;;;;;3.80;2.53;;;11.90;99.90;;;;;;5055607;28;20218;-59
2022/09/27 09:51:51;;;;;;;3.87;2.57;;;12.10;99.90;;;;;;5058644;28;20217;-59
2022/09/27 09:54:26;;;;;;;5.03;2.30;;;12.40;99.90;;;;;;5063388;28;20200;-59
2022/09/27 09:57:03;;;;;;;7.23;2.90;;;12.50;99.90;;;;;;5070277;28;20592;-59
2022/09/27 09:59:41;;;;;;;3.27;1.97;;;12.80;99.90;;;;;;5064103;28;20211;-59
2022/09/27 10:02:21;;;;;;;8.60;2.57;;;13.00;99.90;;;;;;5063499;28;20197;-59
2022/09/27 10:04:51;;;;;;;3.43;2.40;;;13.20;99.90;;;;;;5079883;28;20198;-59
2022/09/27 10:07:23;;;;;;;5.50;2.40;;;13.10;99.90;;;;;;5079765;28;20228;-59
2022/09/27 10:09:56;;;;;;;5.40;2.40;;;13.00;99.90;;;;;;5069799;28;20713;-59
2022/09/27 10:12:24;;;;;;;7.37;2.37;;;12.90;99.90;;;;;;5078050;28;20200;-59
2022/09/27 10:14:54;;;;;;;4.97;2.27;;;12.90;99.90;;;;;;5083332;28;20199;-59
2022/09/27 10:17:27;;;;;;;5.23;3.10;;;12.80;99.90;;;;;;5080901;28;20639;-59
2022/09/27 10:19:58;;;;;;;4.53;2.40;;;12.80;99.90;;;;;;5087839;28;20191;-59
2022/09/27 10:22:31;;;;;;;13.60;2.50;;;12.70;99.90;;;;;;5073518;28;20274;-59
2022/09/27 10:25:05;;;;;;;9.30;6.00;;;12.70;99.90;;;;;;5074997;28;20249;-59
2022/09/27 10:27:40;;;;;;;5.00;2.43;;;12.90;99.90;;;;;;5072125;28;20199;-59
2022/09/27 10:30:23;;;;;;;3.43;2.20;;;12.90;99.90;;;;;;5079707;28;20188;-59
2022/09/27 10:32:55;;;;;;;5.23;2.63;;;12.80;99.90;;;;;;5066178;28;20547;-59
2022/09/27 10:35:35;;;;;;;4.80;2.40;;;12.80;99.90;;;;;;5067036;28;20277;-59
2022/09/27 10:38:26;;;;;;;5.73;2.00;;;12.80;99.90;;;;;;5068520;28;20523;-58
2022/09/27 10:40:57;;;;;;;2.03;1.37;;;12.50;99.90;;;;;;5073968;28;20271;-58
2022/09/27 10:43:32;;;;;;;2.90;1.23;;;12.10;99.90;;;;;;5075702;28;20195;-58
2022/09/27 10:46:10;;;;;;;2.60;1.57;;;11.70;99.90;;;;;;5086178;28;20202;-58
2022/09/27 10:48:41;;;;;;;2.20;1.20;;;11.70;99.90;;;;;;5081123;28;20274;-59
2022/09/27 10:51:24;;;;;;;1.97;1.30;;;11.70;99.90;;;;;;5080317;28;20214;-59
2022/09/27 10:53:57;;;;;;;1.37;1.27;;;11.60;99.90;;;;;;5075958;28;20201;-59
2022/09/27 10:56:31;;;;;;;1.57;1.47;;;11.60;99.90;;;;;;5077931;28;20188;-59
2022/09/27 10:59:03;;;;;;;3.47;1.60;;;11.60;99.90;;;;;;5069176;28;20200;-59
2022/09/27 11:01:40;;;;;;;4.03;1.53;;;11.50;99.90;;;;;;5079613;28;20214;-58
2022/09/27 11:04:20;;;;;;;5.17;2.17;;;11.70;99.90;;;;;;5073916;28;20195;-60
2022/09/27 11:06:49;;;;;;;2.10;1.50;;;12.10;99.90;;;;;;5071165;28;20230;-59
2022/09/27 11:09:23;;;;;;;1.40;1.20;;;12.40;99.90;;;;;;5075935;28;20196;-59
2022/09/27 11:12:07;;;;;;;2.67;2.27;;;12.60;99.90;;;;;;5073402;28;20212;-59
2022/09/27 11:14:35;;;;;;;2.40;1.40;;;12.80;99.90;;;;;;5074169;28;20234;-59
2022/09/27 11:17:14;;;;;;;1.53;1.43;;;12.90;99.90;;;;;;5070720;28;20500;-59
2022/09/27 11:20:15;;;;;;;3.93;1.23;;;13.10;99.90;;;;;;5093741;28;20649;-59
2022/09/27 11:23:13;;;;;;;2.97;1.40;;;12.90;99.90;;;;;;5061255;28;20200;-59
2022/09/27 11:25:49;;;;;;;1.20;1.20;;;12.80;99.90;;;;;;5060478;28;20207;-59
2022/09/27 11:28:33;;;;;;;1.30;1.20;;;13.00;99.90;;;;;;5067729;28;20198;-60
2022/09/27 11:31:10;;;;;;;1.57;1.27;;;13.30;99.90;;;;;;5071896;28;20199;-58
2022/09/27 11:33:54;;;;;;;1.57;1.47;;;13.20;99.90;;;;;;5098185;28;20207;-59
2022/09/27 11:36:36;;;;;;;1.53;1.30;;;13.40;99.90;;;;;;5064614;28;20201;-58
2022/09/27 11:39:13;;;;;;;4.70;2.90;;;13.30;99.90;;;;;;5066341;28;20191;-59
2022/09/27 11:41:57;;;;;;;2.20;1.97;;;13.60;99.90;;;;;;5061667;28;20284;-59
2022/09/27 11:44:58;;;;;;;3.27;2.03;;;14.10;99.90;;;;;;5064464;28;20205;-59
2022/09/27 11:47:57;;;;;;;2.70;1.60;;;14.50;99.90;;;;;;5049376;28;20192;-58
2022/09/27 11:50:49;;;;;;;4.70;2.10;;;14.60;99.90;;;;;;5060853;28;20223;-59
2022/09/27 11:53:34;;;;;;;4.40;2.43;;;14.80;99.90;;;;;;5077488;28;20214;-58
2022/09/27 11:56:12;;;;;;;3.50;2.30;;;15.00;99.90;;;;;;5074457;28;20196;-59
2022/09/27 11:58:51;;;;;;;4.70;1.80;;;15.40;99.90;;;;;;5070014;28;20206;-59
2022/09/27 12:01:32;;;;;;;7.87;2.00;;;15.70;99.90;;;;;;5101998;28;20196;-59
2022/09/27 12:04:31;;;;;;;3.83;1.70;;;15.70;99.90;;;;;;5072612;28;20193;-58
2022/09/27 12:07:05;;;;;;;4.37;2.10;;;15.50;99.90;;;;;;5070434;28;20243;-58
2022/09/27 12:09:38;;;;;;;8.40;1.77;;;15.30;99.90;;;;;;5065442;28;20196;-59
2022/09/27 12:12:14;;;;;;;5.73;1.80;;;15.20;99.90;;;;;;5100555;28;20539;-58
2022/09/27 12:14:46;;;;;;;5.60;2.10;;;15.10;99.90;;;;;;5075536;28;20665;-60
2022/09/27 12:17:18;;;;;;;12.57;2.40;;;14.90;99.90;;;;;;5078418;28;20194;-59
2022/09/27 12:19:52;;;;;;;4.60;1.73;;;14.70;99.90;;;;;;5069507;28;20204;-58
2022/09/27 12:22:25;;;;;;;6.87;1.80;;;14.50;99.90;;;;;;5070739;28;20194;-58
2022/09/27 12:25:17;;;;;;;4.83;1.40;;;14.30;99.90;;;;;;5070680;28;20228;-58
2022/09/27 12:27:53;;;;;;;3.67;1.30;;;13.80;99.90;;;;;;5086297;28;20263;-58
2022/09/27 12:30:21;;;;;;;4.23;1.40;;;13.60;99.90;;;;;;5073473;28;20200;-58
2022/09/27 12:33:01;;;;;;;1.97;1.40;;;13.40;99.90;;;;;;5082199;28;20215;-59
2022/09/27 12:35:35;;;;;;;2.63;1.53;;;13.40;99.90;;;;;;5080622;28;20195;-58
2022/09/27 12:38:10;;;;;;;3.37;1.43;;;13.40;99.90;;;;;;5063614;28;20212;-58
2022/09/27 12:40:41;;;;;;;0.97;0.97;;;13.60;99.90;;;;;;5076614;28;20644;-58
2022/09/27 12:43:16;;;;;;;1.20;1.10;;;13.60;99.90;;;;;;5064335;28;20203;-58
2022/09/27 12:45:52;;;;;;;2.70;1.10;;;13.70;99.90;;;;;;5073525;28;20529;-59
2022/09/27 12:48:27;;;;;;;2.50;1.30;;;14.10;99.90;;;;;;5070901;28;20192;-59
2022/09/27 12:51:04;;;;;;;1.70;1.30;;;14.50;99.90;;;;;;5073640;28;20203;-58
2022/09/27 12:53:45;;;;;;;4.93;1.40;;;14.70;99.90;;;;;;5075690;28;20217;-58
2022/09/27 12:56:32;;;;;;;5.43;1.80;;;14.70;99.90;;;;;;5101217;27;20197;-58
2022/09/27 12:59:16;;;;;;;5.17;1.53;;;15.00;99.90;;;;;;5070333;28;20542;-58
2022/09/27 13:02:19;;;;;;;7.70;1.67;;;14.80;99.90;;;;;;5100104;28;20285;-58
2022/09/27 13:05:04;;;;;;;7.07;1.40;;;14.40;99.90;;;;;;5076263;28;20280;-58
2022/09/27 13:07:51;;;;;;;2.30;1.37;;;14.20;99.90;;;;;;5066578;28;20192;-59
2022/09/27 13:10:55;;;;;;;6.17;1.30;;;14.10;99.90;;;;;;5097758;27;20192;-58
2022/09/27 13:13:26;;;;;;;3.63;1.23;;;13.90;99.90;;;;;;5041587;28;20231;-58
2022/09/27 13:15:57;;;;;;;4.83;1.50;;;13.80;99.90;;;;;;5068171;28;20205;-58
2022/09/27 13:18:31;;;;;;;3.13;1.60;;;13.70;99.90;;;;;;5071997;28;20904;-59
2022/09/27 13:21:00;;;;;;;5.87;1.97;;;13.80;99.90;;;;;;5078736;28;20663;-59
2022/09/27 13:23:51;;;;;;;23.73;8.40;;;13.90;99.90;;;;;;5068506;28;20207;-58
2022/09/27 13:26:39;;;;;;;6.87;2.10;;;14.10;99.90;;;;;;5085445;28;20207;-58
2022/09/27 13:29:28;;;;;;;3.80;1.63;;;14.10;99.90;;;;;;5105064;28;20200;-58
2022/09/27 13:32:19;;;;;;;4.37;1.90;;;14.20;99.90;;;;;;5070773;28;20230;-58
2022/09/27 13:34:50;;;;;;;3.77;1.97;;;14.30;99.90;;;;;;5079550;28;20686;-58